createdAt,value
2023-02-21T00:00:25.463Z,95.37
2023-02-21T00:01:25.458Z,95.47
2023-02-21T00:02:25.528Z,95.47
2023-02-21T00:03:25.440Z,95.17
2023-02-21T00:04:25.430Z,94.85
2023-02-21T00:05:25.518Z,94.81
2023-02-21T00:06:25.414Z,94.45
2023-02-21T00:07:25.420Z,94.55
2023-02-21T00:08:25.404Z,94.45
2023-02-21T00:09:25.396Z,94.34
2023-02-21T00:10:25.417Z,94.96
2023-02-21T00:11:25.378Z,94.20
2023-02-21T00:12:25.371Z,94.55
2023-02-21T00:13:25.371Z,94.96
2023-02-21T00:14:25.355Z,94.76
2023-02-21T00:15:25.375Z,94.85
2023-02-21T00:16:25.384Z,94.96
2023-02-21T00:17:25.329Z,94.96
2023-02-21T00:18:25.324Z,95.06
2023-02-21T00:19:25.322Z,94.85
2023-02-21T00:20:25.329Z,94.65
2023-02-21T00:21:25.302Z,94.34
2023-02-21T00:22:25.296Z,94.65
2023-02-21T00:23:25.288Z,95.68
2023-02-21T00:24:25.280Z,95.47
2023-02-21T00:25:25.296Z,95.47
2023-02-21T00:26:25.259Z,95.47
2023-02-21T00:27:25.254Z,95.27
2023-02-21T00:28:25.246Z,95.10
2023-02-21T00:29:25.246Z,95.37
2023-02-21T00:30:25.352Z,95.37
2023-02-21T00:31:25.274Z,95.52
2023-02-21T00:32:25.251Z,95.47
2023-02-21T00:33:25.231Z,95.52
2023-02-21T00:34:25.196Z,95.57
2023-02-21T00:35:25.218Z,94.85
2023-02-21T00:36:25.178Z,94.45
2023-02-21T00:37:25.172Z,94.96
2023-02-21T00:38:26.604Z,94.85
2023-02-21T00:39:26.150Z,95.06
2023-02-21T00:40:25.175Z,94.96
2023-02-21T00:41:25.139Z,95.62
2023-02-21T00:42:25.138Z,95.47
2023-02-21T00:43:25.125Z,95.68
2023-02-21T00:44:25.112Z,95.47
2023-02-21T00:45:25.127Z,95.47
2023-02-21T00:46:25.167Z,95.10
2023-02-21T00:47:25.094Z,95.42
2023-02-21T00:48:25.088Z,95.10
2023-02-21T00:49:25.075Z,95.17
2023-02-21T00:50:25.093Z,95.17
2023-02-21T00:51:25.063Z,95.31
2023-02-21T00:52:25.052Z,95.17
2023-02-21T00:53:25.043Z,95.10
2023-02-21T00:54:25.038Z,95.06
2023-02-21T00:55:25.057Z,95.21
2023-02-21T00:56:25.050Z,95.52
2023-02-21T00:57:25.017Z,95.42
2023-02-21T00:58:25.005Z,95.21
2023-02-21T00:59:25.000Z,95.42
2023-02-21T01:00:25.017Z,95.89
2023-02-21T01:01:25.014Z,95.72
2023-02-21T01:02:24.982Z,96.34
2023-02-21T01:03:24.972Z,95.42
2023-02-21T01:04:24.972Z,95.21
2023-02-21T01:05:24.985Z,95.31
2023-02-21T01:06:24.952Z,95.42
2023-02-21T01:07:24.945Z,95.42
2023-02-21T01:08:24.934Z,96.23
2023-02-21T01:09:24.931Z,95.93
2023-02-21T01:10:24.945Z,95.52
2023-02-21T01:11:24.913Z,95.52
2023-02-21T01:12:24.900Z,95.21
2023-02-21T01:13:24.898Z,95.72
2023-02-21T01:14:26.838Z,95.93
2023-02-21T01:15:24.919Z,95.93
2023-02-21T01:16:24.889Z,96.55
2023-02-21T01:17:24.870Z,95.97
2023-02-21T01:18:24.874Z,96.03
2023-02-21T01:19:24.854Z,96.03
2023-02-21T01:20:24.880Z,96.23
2023-02-21T01:21:24.840Z,95.72
2023-02-21T01:22:24.848Z,96.34
2023-02-21T01:23:24.816Z,96.28
2023-02-21T01:24:24.817Z,96.14
2023-02-21T01:25:24.835Z,96.55
2023-02-21T01:26:24.798Z,96.14
2023-02-21T01:27:24.799Z,96.34
2023-02-21T01:28:24.784Z,95.83
2023-02-21T01:29:24.770Z,96.65
2023-02-21T01:30:24.802Z,96.28
2023-02-21T01:31:24.846Z,96.28
2023-02-21T01:32:24.798Z,96.59
2023-02-21T01:33:24.753Z,96.59
2023-02-21T01:34:24.739Z,97.41
2023-02-21T01:35:24.744Z,96.90
2023-02-21T01:36:24.743Z,97.52
2023-02-21T01:37:24.721Z,97.00
2023-02-21T01:38:24.702Z,97.41
2023-02-21T01:39:24.699Z,97.41
2023-02-21T01:40:24.692Z,97.31
2023-02-21T01:41:24.710Z,97.41
2023-02-21T01:42:24.673Z,97.31
2023-02-21T01:43:24.672Z,96.69
2023-02-21T01:44:24.665Z,96.90
2023-02-21T01:45:24.649Z,97.41
2023-02-21T01:46:24.700Z,97.62
2023-02-21T01:47:24.640Z,97.27
2023-02-21T01:48:24.627Z,97.41
2023-02-21T01:49:24.622Z,96.69
2023-02-21T01:50:24.616Z,96.39
2023-02-21T01:51:24.636Z,96.44
2023-02-21T01:52:24.604Z,96.44
2023-02-21T01:53:24.600Z,96.44
2023-02-21T01:54:24.583Z,96.39
2023-02-21T01:55:24.585Z,96.69
2023-02-21T01:56:24.593Z,96.59
2023-02-21T01:57:24.569Z,96.69
2023-02-21T01:58:24.555Z,96.48
2023-02-21T01:59:24.549Z,96.85
2023-02-21T02:00:24.540Z,96.39
2023-02-21T02:01:24.588Z,96.69
2023-02-21T02:02:24.520Z,97.31
2023-02-21T02:03:24.519Z,97.00
2023-02-21T02:04:24.546Z,96.80
2023-02-21T02:05:24.505Z,97.31
2023-02-21T02:06:24.517Z,97.41
2023-02-21T02:07:24.485Z,97.31
2023-02-21T02:08:24.472Z,97.31
2023-02-21T02:09:24.464Z,97.00
2023-02-21T02:10:24.460Z,97.00
2023-02-21T02:11:24.474Z,97.10
2023-02-21T02:12:24.537Z,97.41
2023-02-21T02:13:24.434Z,97.41
2023-02-21T02:14:24.427Z,97.41
2023-02-21T02:15:24.427Z,97.00
2023-02-21T02:16:24.436Z,98.24
2023-02-21T02:17:24.409Z,98.03
2023-02-21T02:18:24.404Z,98.03
2023-02-21T02:19:24.404Z,97.62
2023-02-21T02:20:24.380Z,97.62
2023-02-21T02:21:24.401Z,98.07
2023-02-21T02:22:24.427Z,97.62
2023-02-21T02:23:24.359Z,97.82
2023-02-21T02:24:24.347Z,97.62
2023-02-21T02:25:24.336Z,98.07
2023-02-21T02:26:24.354Z,97.72
2023-02-21T02:27:24.330Z,98.07
2023-02-21T02:28:24.321Z,98.03
2023-02-21T02:29:24.308Z,98.07
2023-02-21T02:30:24.330Z,97.92
2023-02-21T02:31:24.392Z,98.07
2023-02-21T02:32:24.361Z,97.77
2023-02-21T02:33:24.280Z,97.62
2023-02-21T02:34:24.271Z,97.52
2023-02-21T02:35:24.270Z,97.45
2023-02-21T02:36:24.258Z,97.87
2023-02-21T02:37:24.277Z,97.92
2023-02-21T02:38:24.246Z,98.13
2023-02-21T02:39:24.245Z,98.18
2023-02-21T02:40:24.230Z,97.77
2023-02-21T02:41:24.273Z,97.77
2023-02-21T02:42:24.213Z,97.87
2023-02-21T02:43:24.221Z,97.66
2023-02-21T02:44:24.250Z,97.62
2023-02-21T02:45:24.193Z,97.66
2023-02-21T02:46:24.207Z,97.87
2023-02-21T02:47:24.199Z,97.77
2023-02-21T02:48:24.170Z,98.07
2023-02-21T02:49:24.156Z,98.13
2023-02-21T02:50:24.149Z,97.56
2023-02-21T02:51:24.139Z,97.87
2023-02-21T02:52:24.153Z,98.07
2023-02-21T02:53:24.123Z,97.25
2023-02-21T02:54:24.120Z,97.20
2023-02-21T02:55:24.120Z,98.07
2023-02-21T02:56:24.108Z,97.87
2023-02-21T02:57:24.119Z,98.07
2023-02-21T02:58:24.079Z,98.07
2023-02-21T02:59:24.075Z,97.97
2023-02-21T03:00:24.063Z,97.77
2023-02-21T03:01:24.076Z,98.07
2023-02-21T03:02:24.081Z,98.07
2023-02-21T03:03:24.073Z,98.38
2023-02-21T03:04:24.033Z,98.18
2023-02-21T03:05:24.031Z,98.18
2023-02-21T03:06:24.025Z,98.18
2023-02-21T03:07:24.041Z,98.38
2023-02-21T03:08:24.013Z,98.07
2023-02-21T03:09:24.003Z,98.43
2023-02-21T03:10:24.002Z,98.28
2023-02-21T03:11:23.984Z,98.18
2023-02-21T03:12:24.006Z,98.07
2023-02-21T03:13:23.974Z,98.53
2023-02-21T03:14:23.961Z,98.49
2023-02-21T03:15:23.951Z,98.94
2023-02-21T03:16:24.003Z,98.53
2023-02-21T03:17:23.963Z,98.59
2023-02-21T03:18:23.928Z,98.22
2023-02-21T03:19:23.920Z,98.84
2023-02-21T03:20:23.912Z,98.84
2023-02-21T03:21:23.903Z,98.84
2023-02-21T03:22:23.942Z,98.53
2023-02-21T03:23:23.889Z,98.38
2023-02-21T03:24:23.896Z,99.15
2023-02-21T03:25:23.879Z,98.63
2023-02-21T03:26:23.871Z,98.79
2023-02-21T03:27:23.883Z,98.74
2023-02-21T03:28:23.855Z,98.94
2023-02-21T03:29:23.849Z,98.79
2023-02-21T03:30:23.900Z,98.84
2023-02-21T03:31:23.863Z,98.53
2023-02-21T03:32:23.913Z,99.05
2023-02-21T03:33:23.819Z,98.94
2023-02-21T03:34:23.808Z,99.35
2023-02-21T03:35:23.796Z,98.90
2023-02-21T03:36:23.795Z,98.94
2023-02-21T03:37:23.818Z,98.43
2023-02-21T03:38:23.790Z,98.53
2023-02-21T03:39:23.768Z,98.94
2023-02-21T03:40:23.798Z,98.59
2023-02-21T03:41:23.759Z,98.94
2023-02-21T03:42:23.769Z,98.63
2023-02-21T03:43:23.741Z,98.59
2023-02-21T03:44:23.734Z,98.69
2023-02-21T03:45:23.726Z,98.90
2023-02-21T03:46:23.732Z,98.90
2023-02-21T03:47:23.730Z,99.00
2023-02-21T03:48:31.754Z,98.28
2023-02-21T03:49:25.704Z,98.18
2023-02-21T03:50:23.690Z,98.07
2023-02-21T03:51:23.677Z,98.38
2023-02-21T03:52:23.698Z,98.07
2023-02-21T03:53:23.672Z,98.33
2023-02-21T03:54:23.655Z,98.07
2023-02-21T03:55:23.649Z,98.22
2023-02-21T03:56:28.092Z,98.18
2023-02-21T03:57:25.657Z,98.07
2023-02-21T03:58:23.632Z,97.66
2023-02-21T03:59:23.680Z,97.77
2023-02-21T04:00:23.619Z,97.66
2023-02-21T04:01:23.706Z,97.45
2023-02-21T04:02:23.646Z,97.66
2023-02-21T04:03:23.593Z,97.45
2023-02-21T04:04:23.591Z,97.66
2023-02-21T04:05:23.580Z,97.56
2023-02-21T04:06:23.584Z,97.66
2023-02-21T04:07:23.586Z,97.87
2023-02-21T04:08:24.556Z,98.28
2023-02-21T04:09:23.545Z,98.18
2023-02-21T04:10:23.546Z,98.07
2023-02-21T04:11:23.549Z,98.28
2023-02-21T04:12:23.549Z,98.18
2023-02-21T04:13:23.522Z,98.33
2023-02-21T04:14:23.517Z,98.18
2023-02-21T04:15:23.498Z,98.28
2023-02-21T04:16:23.561Z,98.18
2023-02-21T04:17:23.519Z,98.07
2023-02-21T04:18:23.480Z,98.18
2023-02-21T04:19:23.472Z,98.18
2023-02-21T04:20:23.469Z,97.77
2023-02-21T04:21:23.462Z,97.72
2023-02-21T04:22:23.476Z,97.45
2023-02-21T04:23:23.455Z,97.66
2023-02-21T04:24:23.440Z,97.66
2023-02-21T04:25:23.426Z,97.66
2023-02-21T04:26:23.418Z,98.18
2023-02-21T04:27:23.441Z,97.56
2023-02-21T04:28:23.404Z,98.28
2023-02-21T04:29:23.396Z,98.07
2023-02-21T04:30:23.453Z,98.18
2023-02-21T04:31:23.414Z,98.24
2023-02-21T04:32:23.476Z,97.87
2023-02-21T04:33:23.368Z,98.18
2023-02-21T04:34:23.365Z,98.18
2023-02-21T04:35:23.352Z,98.18
2023-02-21T04:36:23.343Z,98.28
2023-02-21T04:37:23.359Z,98.28
2023-02-21T04:38:23.337Z,98.07
2023-02-21T04:39:23.318Z,98.38
2023-02-21T04:40:23.315Z,98.18
2023-02-21T04:41:23.309Z,98.49
2023-02-21T04:42:23.331Z,98.28
2023-02-21T04:43:23.290Z,98.49
2023-02-21T04:44:23.287Z,99.00
2023-02-21T04:45:23.280Z,98.79
2023-02-21T04:46:23.272Z,98.79
2023-02-21T04:47:23.297Z,98.79
2023-02-21T04:48:23.255Z,98.59
2023-02-21T04:49:23.247Z,98.69
2023-02-21T04:50:23.245Z,98.90
2023-02-21T04:51:23.235Z,98.90
2023-02-21T04:52:23.253Z,98.69
2023-02-21T04:53:23.222Z,98.79
2023-02-21T04:54:23.206Z,98.90
2023-02-21T04:55:23.199Z,98.28
2023-02-21T04:56:23.245Z,98.03
2023-02-21T04:57:23.182Z,98.07
2023-02-21T04:58:24.540Z,98.33
2023-02-21T04:59:23.174Z,98.24
2023-02-21T05:00:23.162Z,98.07
2023-02-21T05:01:23.283Z,98.07
2023-02-21T05:02:23.144Z,98.28
2023-02-21T05:03:23.159Z,98.18
2023-02-21T05:04:23.130Z,98.18
2023-02-21T05:05:23.155Z,97.72
2023-02-21T05:06:23.115Z,97.87
2023-02-21T05:07:23.108Z,97.66
2023-02-21T05:08:26.359Z,97.87
2023-02-21T05:09:24.086Z,97.66
2023-02-21T05:10:25.436Z,97.87
2023-02-21T05:11:23.070Z,97.77
2023-02-21T05:12:23.083Z,97.66
2023-02-21T05:13:23.089Z,97.62
2023-02-21T05:14:23.043Z,98.07
2023-02-21T05:15:24.044Z,97.87
2023-02-21T05:16:23.050Z,97.66
2023-02-21T05:17:23.034Z,97.97
2023-02-21T05:18:23.044Z,97.77
2023-02-21T05:19:23.012Z,97.87
2023-02-21T05:20:23.005Z,97.66
2023-02-21T05:21:22.999Z,97.97
2023-02-21T05:22:22.988Z,97.77
2023-02-21T05:23:23.011Z,97.87
2023-02-21T05:24:22.975Z,97.77
2023-02-21T05:25:22.976Z,97.97
2023-02-21T05:26:22.955Z,97.66
2023-02-21T05:27:22.955Z,97.56
2023-02-21T05:28:22.975Z,97.45
2023-02-21T05:29:22.928Z,97.45
2023-02-21T05:30:22.999Z,97.66
2023-02-21T05:31:22.955Z,98.28
2023-02-21T05:32:22.973Z,98.07
2023-02-21T05:33:22.931Z,98.18
2023-02-21T05:34:22.894Z,98.18
2023-02-21T05:35:22.889Z,98.38
2023-02-21T05:36:22.876Z,98.18
2023-02-21T05:37:22.873Z,98.18
2023-02-21T05:38:22.889Z,98.07
2023-02-21T05:39:22.891Z,98.28
2023-02-21T05:40:22.854Z,98.28
2023-02-21T05:41:22.850Z,97.66
2023-02-21T05:42:22.832Z,97.87
2023-02-21T05:43:22.851Z,98.07
2023-02-21T05:44:22.817Z,98.18
2023-02-21T05:45:22.811Z,98.33
2023-02-21T05:46:22.835Z,97.97
2023-02-21T05:47:22.793Z,98.07
2023-02-21T05:48:22.810Z,98.18
2023-02-21T05:49:22.777Z,98.18
2023-02-21T05:50:22.764Z,98.12
2023-02-21T05:51:22.763Z,98.18
2023-02-21T05:52:22.761Z,98.28
2023-02-21T05:53:22.771Z,98.49
2023-02-21T05:54:22.749Z,98.53
2023-02-21T05:55:22.725Z,98.33
2023-02-21T05:56:22.717Z,98.49
2023-02-21T05:57:22.716Z,99.00
2023-02-21T05:58:22.728Z,98.79
2023-02-21T05:59:22.694Z,98.07
2023-02-21T06:00:22.687Z,98.22
2023-02-21T06:01:22.675Z,98.18
2023-02-21T06:02:22.721Z,98.28
2023-02-21T06:03:22.723Z,98.18
2023-02-21T06:04:22.654Z,98.18
2023-02-21T06:05:22.646Z,98.18
2023-02-21T06:06:22.638Z,98.07
2023-02-21T06:07:22.627Z,98.18
2023-02-21T06:08:22.652Z,98.18
2023-02-21T06:09:22.616Z,98.07
2023-02-21T06:10:22.612Z,98.18
2023-02-21T06:11:22.601Z,97.97
2023-02-21T06:12:22.595Z,98.18
2023-02-21T06:13:22.603Z,98.18
2023-02-21T06:14:22.575Z,98.07
2023-02-21T06:15:22.561Z,98.28
2023-02-21T06:16:22.557Z,98.12
2023-02-21T06:17:22.551Z,98.63
2023-02-21T06:18:22.566Z,98.18
2023-02-21T06:19:22.535Z,99.10
2023-02-21T06:20:22.524Z,98.94
2023-02-21T06:21:22.532Z,98.18
2023-02-21T06:22:22.512Z,98.84
2023-02-21T06:23:22.528Z,98.79
2023-02-21T06:24:22.495Z,98.53
2023-02-21T06:25:22.487Z,98.49
2023-02-21T06:26:22.481Z,98.07
2023-02-21T06:27:22.470Z,98.22
2023-02-21T06:28:22.489Z,98.28
2023-02-21T06:29:22.457Z,98.18
2023-02-21T06:30:23.276Z,98.07
2023-02-21T06:31:23.475Z,98.49
2023-02-21T06:32:22.436Z,98.69
2023-02-21T06:33:22.451Z,98.69
2023-02-21T06:34:22.423Z,98.49
2023-02-21T06:35:22.418Z,98.69
2023-02-21T06:36:22.449Z,98.59
2023-02-21T06:37:22.411Z,99.10
2023-02-21T06:38:22.417Z,98.49
2023-02-21T06:39:22.386Z,98.49
2023-02-21T06:40:22.378Z,98.38
2023-02-21T06:41:22.388Z,99.10
2023-02-21T06:42:22.366Z,98.59
2023-02-21T06:43:22.387Z,98.59
2023-02-21T06:44:22.356Z,99.00
2023-02-21T06:45:22.339Z,98.69
2023-02-21T06:46:22.398Z,98.18
2023-02-21T06:47:22.328Z,98.24
2023-02-21T06:48:22.368Z,98.38
2023-02-21T06:49:22.316Z,98.28
2023-02-21T06:50:22.303Z,98.07
2023-02-21T06:51:22.297Z,97.97
2023-02-21T06:52:22.288Z,98.28
2023-02-21T06:53:22.313Z,98.28
2023-02-21T06:54:22.271Z,98.07
2023-02-21T06:55:25.025Z,97.97
2023-02-21T06:56:22.256Z,97.87
2023-02-21T06:57:22.252Z,97.66
2023-02-21T06:58:22.269Z,97.72
2023-02-21T06:59:22.237Z,97.82
2023-02-21T07:00:22.238Z,97.62
2023-02-21T07:01:22.249Z,98.07
2023-02-21T07:02:22.210Z,97.62
2023-02-21T07:03:22.230Z,97.82
2023-02-21T07:04:22.202Z,98.03
2023-02-21T07:05:22.192Z,98.13
2023-02-21T07:06:22.188Z,98.18
2023-02-21T07:07:22.171Z,98.18
2023-02-21T07:08:22.190Z,98.18
2023-02-21T07:09:22.154Z,98.13
2023-02-21T07:10:22.144Z,98.18
2023-02-21T07:11:22.143Z,98.13
2023-02-21T07:12:22.142Z,98.33
2023-02-21T07:13:22.644Z,98.03
2023-02-21T07:14:23.122Z,98.13
2023-02-21T07:15:22.109Z,98.03
2023-02-21T07:16:22.105Z,98.13
2023-02-21T07:17:22.092Z,98.03
2023-02-21T07:18:22.107Z,98.24
2023-02-21T07:19:22.080Z,98.03
2023-02-21T07:20:22.075Z,98.07
2023-02-21T07:21:22.072Z,98.33
2023-02-21T07:22:22.055Z,98.44
2023-02-21T07:23:22.064Z,98.33
2023-02-21T07:24:22.033Z,99.05
2023-02-21T07:25:22.037Z,98.18
2023-02-21T07:26:22.026Z,98.13
2023-02-21T07:27:22.007Z,98.13
2023-02-21T07:28:22.024Z,97.82
2023-02-21T07:29:22.057Z,98.13
2023-02-21T07:30:22.070Z,98.13
2023-02-21T07:31:22.327Z,97.92
2023-02-21T07:32:22.010Z,98.24
2023-02-21T07:33:21.992Z,97.82
2023-02-21T07:34:21.963Z,98.33
2023-02-21T07:35:21.949Z,98.13
2023-02-21T07:36:21.944Z,98.24
2023-02-21T07:37:21.944Z,98.13
2023-02-21T07:38:21.976Z,98.03
2023-02-21T07:39:21.921Z,98.13
2023-02-21T07:40:21.917Z,97.99
2023-02-21T07:41:21.911Z,97.82
2023-02-21T07:42:21.899Z,97.62
2023-02-21T07:43:21.925Z,97.82
2023-02-21T07:44:21.883Z,97.99
2023-02-21T07:45:21.889Z,97.67
2023-02-21T07:46:21.882Z,97.67
2023-02-21T07:47:21.869Z,97.78
2023-02-21T07:48:21.888Z,97.16
2023-02-21T07:49:21.862Z,96.81
2023-02-21T07:50:21.837Z,97.27
2023-02-21T07:51:21.836Z,97.12
2023-02-21T07:52:21.866Z,96.50
2023-02-21T07:53:21.834Z,96.65
2023-02-21T07:54:21.839Z,96.60
2023-02-21T07:55:21.832Z,96.40
2023-02-21T07:56:21.819Z,95.94
2023-02-21T07:57:21.786Z,95.64
2023-02-21T07:58:21.786Z,95.64
2023-02-21T07:59:21.794Z,96.30
2023-02-21T08:00:21.760Z,96.30
2023-02-21T08:01:21.797Z,96.19
2023-02-21T08:02:21.746Z,96.30
2023-02-21T08:03:21.737Z,96.09
2023-02-21T08:04:21.762Z,95.84
2023-02-21T08:05:21.737Z,95.64
2023-02-21T08:06:21.724Z,96.25
2023-02-21T08:07:21.722Z,95.39
2023-02-21T08:08:21.697Z,95.18
2023-02-21T08:09:21.713Z,94.77
2023-02-21T08:10:21.695Z,95.18
2023-02-21T08:11:21.671Z,94.87
2023-02-21T08:12:21.666Z,94.87
2023-02-21T08:13:21.650Z,94.77
2023-02-21T08:14:22.670Z,94.26
2023-02-21T08:15:21.635Z,93.85
2023-02-21T08:16:21.691Z,94.77
2023-02-21T08:17:21.617Z,93.95
2023-02-21T08:18:22.614Z,94.15
2023-02-21T08:19:21.636Z,93.95
2023-02-21T08:20:21.597Z,94.67
2023-02-21T08:21:21.598Z,93.95
2023-02-21T08:22:21.589Z,93.85
2023-02-21T08:23:21.576Z,94.56
2023-02-21T08:24:21.594Z,94.62
2023-02-21T08:25:21.560Z,94.26
2023-02-21T08:26:21.549Z,94.77
2023-02-21T08:27:21.540Z,93.80
2023-02-21T08:28:22.537Z,93.80
2023-02-21T08:29:21.555Z,94.01
2023-02-21T08:30:21.580Z,93.19
2023-02-21T08:31:21.551Z,93.60
2023-02-21T08:32:21.535Z,93.55
2023-02-21T08:33:21.534Z,93.15
2023-02-21T08:34:21.526Z,93.76
2023-02-21T08:35:21.477Z,93.66
2023-02-21T08:36:21.474Z,92.79
2023-02-21T08:37:21.472Z,92.79
2023-02-21T08:38:21.459Z,92.59
2023-02-21T08:39:21.488Z,92.24
2023-02-21T08:40:21.458Z,92.14
2023-02-21T08:41:21.439Z,92.24
2023-02-21T08:42:21.428Z,92.14
2023-02-21T08:43:21.422Z,92.14
2023-02-21T08:44:21.441Z,92.34
2023-02-21T08:45:21.421Z,91.78
2023-02-21T08:46:21.420Z,90.97
2023-02-21T08:47:21.389Z,90.81
2023-02-21T08:48:21.382Z,90.31
2023-02-21T08:49:21.401Z,90.77
2023-02-21T08:50:21.369Z,90.97
2023-02-21T08:51:21.356Z,89.90
2023-02-21T08:52:21.354Z,90.31
2023-02-21T08:53:21.351Z,90.21
2023-02-21T08:54:21.366Z,89.86
2023-02-21T08:55:21.348Z,89.65
2023-02-21T08:56:21.324Z,89.56
2023-02-21T08:57:21.319Z,89.15
2023-02-21T08:58:21.306Z,89.45
2023-02-21T08:59:21.368Z,90.27
2023-02-21T09:00:21.295Z,89.76
2023-02-21T09:01:21.360Z,90.11
2023-02-21T09:02:21.306Z,90.11
2023-02-21T09:03:21.272Z,90.27
2023-02-21T09:04:23.127Z,90.06
2023-02-21T09:05:21.256Z,90.06
2023-02-21T09:06:21.253Z,89.25
2023-02-21T09:07:21.259Z,89.45
2023-02-21T09:08:21.241Z,89.11
2023-02-21T09:09:21.253Z,89.31
2023-02-21T09:10:21.226Z,89.11
2023-02-21T09:11:21.226Z,89.58
2023-02-21T09:12:21.208Z,88.49
2023-02-21T09:13:21.207Z,89.11
2023-02-21T09:14:21.231Z,89.41
2023-02-21T09:15:21.179Z,88.90
2023-02-21T09:16:21.211Z,89.17
2023-02-21T09:17:21.165Z,88.85
2023-02-21T09:18:21.157Z,89.58
2023-02-21T09:19:21.171Z,89.26
2023-02-21T09:20:21.141Z,87.84
2023-02-21T09:21:21.134Z,88.31
2023-02-21T09:22:21.121Z,87.59
2023-02-21T09:23:21.119Z,88.04
2023-02-21T09:24:21.120Z,88.04
2023-02-21T09:25:22.099Z,88.35
2023-02-21T09:26:21.094Z,89.17
2023-02-21T09:27:21.088Z,88.76
2023-02-21T09:28:21.081Z,88.14
2023-02-21T09:29:21.106Z,88.39
2023-02-21T09:30:21.075Z,89.31
2023-02-21T09:31:21.134Z,88.18
2023-02-21T09:32:21.071Z,89.20
2023-02-21T09:33:21.052Z,89.20
2023-02-21T09:34:21.057Z,89.51
2023-02-21T09:35:21.048Z,87.88
2023-02-21T09:36:21.038Z,88.76
2023-02-21T09:37:21.021Z,88.96
2023-02-21T09:38:21.004Z,89.26
2023-02-21T09:39:21.024Z,89.17
2023-02-21T09:40:20.989Z,89.17
2023-02-21T09:41:20.989Z,89.17
2023-02-21T09:42:20.970Z,88.65
2023-02-21T09:43:20.954Z,88.76
2023-02-21T09:44:21.991Z,88.71
2023-02-21T09:45:20.953Z,89.43
2023-02-21T09:46:20.947Z,88.24
2023-02-21T09:47:20.942Z,88.96
2023-02-21T09:48:20.923Z,89.26
2023-02-21T09:49:20.941Z,88.31
2023-02-21T09:50:20.950Z,88.31
2023-02-21T09:51:20.902Z,89.23
2023-02-21T09:52:20.900Z,88.88
2023-02-21T09:53:20.885Z,89.23
2023-02-21T09:54:20.910Z,89.23
2023-02-21T09:55:20.872Z,89.02
2023-02-21T09:56:20.877Z,88.61
2023-02-21T09:57:20.852Z,89.32
2023-02-21T09:58:20.844Z,88.61
2023-02-21T09:59:20.873Z,89.32
2023-02-21T10:00:20.834Z,88.20
2023-02-21T10:01:20.867Z,88.26
2023-02-21T10:02:20.820Z,88.17
2023-02-21T10:03:20.812Z,88.26
2023-02-21T10:04:20.811Z,88.37
2023-02-21T10:05:20.817Z,87.41
2023-02-21T10:06:20.785Z,87.30
2023-02-21T10:07:20.778Z,87.24
2023-02-21T10:08:20.776Z,87.71
2023-02-21T10:09:20.792Z,88.22
2023-02-21T10:10:20.831Z,88.06
2023-02-21T10:11:22.110Z,88.26
2023-02-21T10:12:21.743Z,87.65
2023-02-21T10:13:20.735Z,87.76
2023-02-21T10:14:20.727Z,87.65
2023-02-21T10:15:20.740Z,87.96
2023-02-21T10:16:20.728Z,88.78
2023-02-21T10:17:20.706Z,89.39
2023-02-21T10:18:20.693Z,89.08
2023-02-21T10:19:20.687Z,88.37
2023-02-21T10:20:20.789Z,88.57
2023-02-21T10:21:20.673Z,89.39
2023-02-21T10:22:20.658Z,89.08
2023-02-21T10:23:20.653Z,89.28
2023-02-21T10:24:20.645Z,89.39
2023-02-21T10:25:20.662Z,89.18
2023-02-21T10:26:20.635Z,88.84
2023-02-21T10:27:20.622Z,88.26
2023-02-21T10:28:20.616Z,88.67
2023-02-21T10:29:20.612Z,88.26
2023-02-21T10:30:20.725Z,88.98
2023-02-21T10:31:20.658Z,88.06
2023-02-21T10:32:20.605Z,88.53
2023-02-21T10:33:20.577Z,88.53
2023-02-21T10:34:20.569Z,88.63
2023-02-21T10:35:20.582Z,87.71
2023-02-21T10:36:20.562Z,88.63
2023-02-21T10:37:20.612Z,88.12
2023-02-21T10:38:20.668Z,88.12
2023-02-21T10:39:20.566Z,88.12
2023-02-21T10:40:20.587Z,87.82
2023-02-21T10:41:20.523Z,88.22
2023-02-21T10:42:20.506Z,88.12
2023-02-21T10:43:20.498Z,87.57
2023-02-21T10:44:20.497Z,87.77
2023-02-21T10:45:20.515Z,87.88
2023-02-21T10:46:20.477Z,87.98
2023-02-21T10:47:20.465Z,88.18
2023-02-21T10:48:20.458Z,87.67
2023-02-21T10:49:20.466Z,87.98
2023-02-21T10:50:20.463Z,88.18
2023-02-21T10:51:20.437Z,87.88
2023-02-21T10:52:20.413Z,88.28
2023-02-21T10:53:21.552Z,88.28
2023-02-21T10:54:20.464Z,87.98
2023-02-21T10:55:32.277Z,88.18
2023-02-21T10:56:22.397Z,88.18
2023-02-21T10:57:20.390Z,87.88
2023-02-21T10:58:20.407Z,87.57
2023-02-21T10:59:20.383Z,87.61
2023-02-21T11:00:20.431Z,87.37
2023-02-21T11:01:20.390Z,87.82
2023-02-21T11:02:20.412Z,87.47
2023-02-21T11:03:20.340Z,88.18
2023-02-21T11:04:20.354Z,87.63
2023-02-21T11:05:20.354Z,87.43
2023-02-21T11:06:20.316Z,87.43
2023-02-21T11:07:20.308Z,87.53
2023-02-21T11:08:20.297Z,87.63
2023-02-21T11:09:20.294Z,87.43
2023-02-21T11:10:20.312Z,87.63
2023-02-21T11:11:20.276Z,87.06
2023-02-21T11:12:20.294Z,86.92
2023-02-21T11:13:20.260Z,87.32
2023-02-21T11:14:20.274Z,87.57
2023-02-21T11:15:20.274Z,87.43
2023-02-21T11:16:20.239Z,86.41
2023-02-21T11:17:20.227Z,86.45
2023-02-21T11:18:20.221Z,86.76
2023-02-21T11:19:20.219Z,87.37
2023-02-21T11:20:20.215Z,87.26
2023-02-21T11:21:20.229Z,86.96
2023-02-21T11:22:20.191Z,86.86
2023-02-21T11:23:20.185Z,87.67
2023-02-21T11:24:20.178Z,87.32
2023-02-21T11:25:20.228Z,86.37
2023-02-21T11:26:20.185Z,85.96
2023-02-21T11:27:20.162Z,85.96
2023-02-21T11:28:20.144Z,86.68
2023-02-21T11:29:20.132Z,85.86
2023-02-21T11:30:20.177Z,86.02
2023-02-21T11:31:20.168Z,86.33
2023-02-21T11:32:20.156Z,86.19
2023-02-21T11:33:20.132Z,85.37
2023-02-21T11:34:20.099Z,85.37
2023-02-21T11:35:20.098Z,85.37
2023-02-21T11:36:20.112Z,84.56
2023-02-21T11:37:20.078Z,85.31
2023-02-21T11:38:20.070Z,85.21
2023-02-21T11:39:20.065Z,85.92
2023-02-21T11:40:20.058Z,85.21
2023-02-21T11:41:20.074Z,86.19
2023-02-21T11:42:20.043Z,85.68
2023-02-21T11:43:20.054Z,85.27
2023-02-21T11:44:20.029Z,84.56
2023-02-21T11:45:20.031Z,85.43
2023-02-21T11:46:20.101Z,84.72
2023-02-21T11:47:20.014Z,84.31
2023-02-21T11:48:20.019Z,83.20
2023-02-21T11:49:19.993Z,83.70
2023-02-21T11:50:19.980Z,83.87
2023-02-21T11:51:20.031Z,83.42
2023-02-21T11:52:19.968Z,83.32
2023-02-21T11:53:19.963Z,83.12
2023-02-21T11:54:19.956Z,82.57
2023-02-21T11:55:20.927Z,82.37
2023-02-21T11:56:19.973Z,82.47
2023-02-21T11:57:19.929Z,82.45
2023-02-21T11:58:19.922Z,82.95
2023-02-21T11:59:19.909Z,83.12
2023-02-21T12:00:19.925Z,82.31
2023-02-21T12:01:19.915Z,82.10
2023-02-21T12:02:19.892Z,83.56
2023-02-21T12:03:19.879Z,82.24
2023-02-21T12:04:19.871Z,83.15
2023-02-21T12:05:19.879Z,83.15
2023-02-21T12:06:19.889Z,82.71
2023-02-21T12:07:19.846Z,82.40
2023-02-21T12:08:19.844Z,82.20
2023-02-21T12:09:19.831Z,82.85
2023-02-21T12:10:19.831Z,82.14
2023-02-21T12:11:19.843Z,83.06
2023-02-21T12:12:19.818Z,83.40
2023-02-21T12:13:19.794Z,83.60
2023-02-21T12:14:19.790Z,82.99
2023-02-21T12:15:19.784Z,82.99
2023-02-21T12:16:19.775Z,83.06
2023-02-21T12:17:19.790Z,83.70
2023-02-21T12:18:19.763Z,84.52
2023-02-21T12:19:19.771Z,84.31
2023-02-21T12:20:19.754Z,84.52
2023-02-21T12:21:19.760Z,84.52
2023-02-21T12:22:19.727Z,84.52
2023-02-21T12:23:19.721Z,84.21
2023-02-21T12:24:19.714Z,84.48
2023-02-21T12:25:19.701Z,83.70
2023-02-21T12:26:19.698Z,83.70
2023-02-21T12:27:19.713Z,83.67
2023-02-21T12:28:19.669Z,83.67
2023-02-21T12:29:20.680Z,83.97
2023-02-21T12:30:19.761Z,83.15
2023-02-21T12:31:20.078Z,83.50
2023-02-21T12:32:19.716Z,84.11
2023-02-21T12:33:19.647Z,83.87
2023-02-21T12:34:19.640Z,83.81
2023-02-21T12:35:19.669Z,84.62
2023-02-21T12:36:19.624Z,84.62
2023-02-21T12:37:19.646Z,84.86
2023-02-21T12:38:19.611Z,84.42
2023-02-21T12:39:19.600Z,84.86
2023-02-21T12:40:19.607Z,84.76
2023-02-21T12:41:19.644Z,84.45
2023-02-21T12:42:19.612Z,84.72
2023-02-21T12:43:19.606Z,84.56
2023-02-21T12:44:19.562Z,84.82
2023-02-21T12:45:19.573Z,84.66
2023-02-21T12:46:19.599Z,84.76
2023-02-21T12:47:19.573Z,85.06
2023-02-21T12:48:19.542Z,84.97
2023-02-21T12:49:19.541Z,84.76
2023-02-21T12:50:19.534Z,85.37
2023-02-21T12:51:19.541Z,85.06
2023-02-21T12:52:19.530Z,85.06